sensor_id;sensor_type;location;lat;lon;timestamp;P1;durP1;ratioP1;P2;durP2;ratioP2
15528;SDS011;7866;52.280;9.500;2024-03-17T00:00:07;5.30;;;2.10;;
15528;SDS011;7866;52.280;9.500;2024-03-17T00:05:14;5.73;;;2.30;;
15528;SDS011;7866;52.280;9.500;2024-03-17T00:10:20;6.17;;;2.10;;
15528;SDS011;7866;52.280;9.500;2024-03-17T00:15:21;3.90;;;2.00;;
15528;SDS011;7866;52.280;9.500;2024-03-17T00:20:23;5.20;;;2.33;;
15528;SDS011;7866;52.280;9.500;2024-03-17T00:25:27;3.47;;;1.80;;
15528;SDS011;7866;52.280;9.500;2024-03-17T00:30:28;4.73;;;2.00;;
15528;SDS011;7866;52.280;9.500;2024-03-17T00:35:31;5.17;;;2.23;;
15528;SDS011;7866;52.280;9.500;2024-03-17T00:40:34;7.13;;;2.30;;
15528;SDS011;7866;52.280;9.500;2024-03-17T00:45:36;6.10;;;2.40;;
15528;SDS011;7866;52.280;9.500;2024-03-17T00:50:38;5.87;;;2.23;;
15528;SDS011;7866;52.280;9.500;2024-03-17T00:55:41;6.30;;;1.97;;
15528;SDS011;7866;52.280;9.500;2024-03-17T01:00:43;5.63;;;2.00;;
15528;SDS011;7866;52.280;9.500;2024-03-17T01:05:44;5.90;;;2.00;;
15528;SDS011;7866;52.280;9.500;2024-03-17T01:10:49;4.80;;;1.80;;
15528;SDS011;7866;52.280;9.500;2024-03-17T01:15:51;4.97;;;1.67;;
15528;SDS011;7866;52.280;9.500;2024-03-17T01:20:53;4.57;;;1.83;;
15528;SDS011;7866;52.280;9.500;2024-03-17T01:25:56;4.07;;;2.00;;
15528;SDS011;7866;52.280;9.500;2024-03-17T01:30:57;7.33;;;2.27;;
15528;SDS011;7866;52.280;9.500;2024-03-17T01:35:59;6.83;;;2.10;;
15528;SDS011;7866;52.280;9.500;2024-03-17T01:41:02;6.17;;;2.03;;
15528;SDS011;7866;52.280;9.500;2024-03-17T01:46:04;4.40;;;1.93;;
15528;SDS011;7866;52.280;9.500;2024-03-17T01:51:07;5.53;;;2.20;;
15528;SDS011;7866;52.280;9.500;2024-03-17T01:56:13;5.57;;;1.70;;
15528;SDS011;7866;52.280;9.500;2024-03-17T02:01:17;8.43;;;2.30;;
15528;SDS011;7866;52.280;9.500;2024-03-17T02:06:19;5.27;;;1.80;;
15528;SDS011;7866;52.280;9.500;2024-03-17T02:11:25;6.70;;;2.50;;
15528;SDS011;7866;52.280;9.500;2024-03-17T02:16:28;5.07;;;2.00;;
15528;SDS011;7866;52.280;9.500;2024-03-17T02:21:29;7.23;;;2.13;;
15528;SDS011;7866;52.280;9.500;2024-03-17T02:26:32;7.43;;;2.27;;
15528;SDS011;7866;52.280;9.500;2024-03-17T02:31:35;12.40;;;2.20;;
15528;SDS011;7866;52.280;9.500;2024-03-17T02:36:36;8.83;;;2.43;;
15528;SDS011;7866;52.280;9.500;2024-03-17T02:41:43;5.03;;;1.90;;
15528;SDS011;7866;52.280;9.500;2024-03-17T02:46:46;5.63;;;1.97;;
15528;SDS011;7866;52.280;9.500;2024-03-17T02:51:48;6.87;;;2.07;;
15528;SDS011;7866;52.280;9.500;2024-03-17T02:56:51;3.43;;;1.90;;
15528;SDS011;7866;52.280;9.500;2024-03-17T03:01:53;3.00;;;1.60;;
15528;SDS011;7866;52.280;9.500;2024-03-17T03:06:55;7.17;;;1.87;;
15528;SDS011;7866;52.280;9.500;2024-03-17T03:11:58;6.37;;;1.90;;
15528;SDS011;7866;52.280;9.500;2024-03-17T03:17:00;6.63;;;1.90;;
15528;SDS011;7866;52.280;9.500;2024-03-17T03:22:02;5.67;;;1.80;;
15528;SDS011;7866;52.280;9.500;2024-03-17T03:27:05;5.60;;;2.10;;
15528;SDS011;7866;52.280;9.500;2024-03-17T03:32:07;4.03;;;1.60;;
15528;SDS011;7866;52.280;9.500;2024-03-17T03:37:08;11.20;;;1.90;;
15528;SDS011;7866;52.280;9.500;2024-03-17T03:42:12;9.83;;;1.77;;
15528;SDS011;7866;52.280;9.500;2024-03-17T03:47:14;4.90;;;1.80;;
15528;SDS011;7866;52.280;9.500;2024-03-17T03:52:15;5.20;;;1.60;;
15528;SDS011;7866;52.280;9.500;2024-03-17T03:57:18;3.43;;;1.37;;
15528;SDS011;7866;52.280;9.500;2024-03-17T04:02:20;4.97;;;1.80;;
15528;SDS011;7866;52.280;9.500;2024-03-17T04:07:23;5.50;;;1.90;;
15528;SDS011;7866;52.280;9.500;2024-03-17T04:12:26;5.43;;;1.73;;
15528;SDS011;7866;52.280;9.500;2024-03-17T04:17:31;4.93;;;1.77;;
15528;SDS011;7866;52.280;9.500;2024-03-17T04:22:32;5.40;;;1.70;;
15528;SDS011;7866;52.280;9.500;2024-03-17T04:27:35;4.60;;;1.50;;
15528;SDS011;7866;52.280;9.500;2024-03-17T04:32:38;4.77;;;1.50;;
15528;SDS011;7866;52.280;9.500;2024-03-17T04:37:40;4.50;;;1.67;;
15528;SDS011;7866;52.280;9.500;2024-03-17T04:42:43;4.97;;;1.97;;
15528;SDS011;7866;52.280;9.500;2024-03-17T04:47:45;6.93;;;1.80;;
15528;SDS011;7866;52.280;9.500;2024-03-17T04:52:47;4.13;;;1.63;;
15528;SDS011;7866;52.280;9.500;2024-03-17T04:57:51;3.87;;;1.60;;
15528;SDS011;7866;52.280;9.500;2024-03-17T05:02:52;5.73;;;1.70;;
15528;SDS011;7866;52.280;9.500;2024-03-17T05:07:54;5.53;;;2.10;;
15528;SDS011;7866;52.280;9.500;2024-03-17T05:12:57;6.87;;;1.77;;
15528;SDS011;7866;52.280;9.500;2024-03-17T05:17:58;6.03;;;2.00;;
15528;SDS011;7866;52.280;9.500;2024-03-17T05:23:00;6.50;;;1.97;;
15528;SDS011;7866;52.280;9.500;2024-03-17T05:28:03;5.50;;;2.63;;
15528;SDS011;7866;52.280;9.500;2024-03-17T05:33:05;7.20;;;2.03;;
15528;SDS011;7866;52.280;9.500;2024-03-17T05:38:07;10.07;;;2.33;;
15528;SDS011;7866;52.280;9.500;2024-03-17T05:43:11;3.93;;;1.70;;
15528;SDS011;7866;52.280;9.500;2024-03-17T05:48:13;6.00;;;2.10;;
15528;SDS011;7866;52.280;9.500;2024-03-17T05:53:15;8.97;;;2.33;;
15528;SDS011;7866;52.280;9.500;2024-03-17T05:58:19;4.33;;;2.23;;
15528;SDS011;7866;52.280;9.500;2024-03-17T06:03:21;4.87;;;2.20;;
15528;SDS011;7866;52.280;9.500;2024-03-17T06:08:22;2.63;;;2.03;;
15528;SDS011;7866;52.280;9.500;2024-03-17T06:13:25;4.13;;;2.30;;
15528;SDS011;7866;52.280;9.500;2024-03-17T06:18:28;8.27;;;3.07;;
15528;SDS011;7866;52.280;9.500;2024-03-17T06:23:30;6.70;;;2.30;;
15528;SDS011;7866;52.280;9.500;2024-03-17T06:28:33;3.47;;;2.50;;
15528;SDS011;7866;52.280;9.500;2024-03-17T06:33:34;4.20;;;2.30;;
15528;SDS011;7866;52.280;9.500;2024-03-17T06:38:36;4.93;;;2.20;;
15528;SDS011;7866;52.280;9.500;2024-03-17T06:43:39;4.80;;;2.77;;
15528;SDS011;7866;52.280;9.500;2024-03-17T06:48:41;6.07;;;3.30;;
15528;SDS011;7866;52.280;9.500;2024-03-17T06:53:43;7.27;;;3.43;;
15528;SDS011;7866;52.280;9.500;2024-03-17T06:58:46;5.70;;;2.50;;
15528;SDS011;7866;52.280;9.500;2024-03-17T07:03:48;6.53;;;2.77;;
15528;SDS011;7866;52.280;9.500;2024-03-17T07:08:49;5.17;;;2.53;;
15528;SDS011;7866;52.280;9.500;2024-03-17T07:13:52;3.83;;;2.23;;
15528;SDS011;7866;52.280;9.500;2024-03-17T07:18:54;5.67;;;2.47;;
15528;SDS011;7866;52.280;9.500;2024-03-17T07:23:56;5.90;;;2.60;;
15528;SDS011;7866;52.280;9.500;2024-03-17T07:29:00;5.60;;;2.23;;
15528;SDS011;7866;52.280;9.500;2024-03-17T07:34:02;7.47;;;2.50;;
15528;SDS011;7866;52.280;9.500;2024-03-17T07:39:04;6.83;;;2.90;;
15528;SDS011;7866;52.280;9.500;2024-03-17T07:44:08;8.27;;;2.60;;
15528;SDS011;7866;52.280;9.500;2024-03-17T07:49:10;5.07;;;2.43;;
15528;SDS011;7866;52.280;9.500;2024-03-17T07:54:12;8.37;;;2.40;;
15528;SDS011;7866;52.280;9.500;2024-03-17T07:59:15;6.83;;;2.70;;
15528;SDS011;7866;52.280;9.500;2024-03-17T08:04:18;6.67;;;2.70;;
15528;SDS011;7866;52.280;9.500;2024-03-17T08:09:19;7.90;;;2.90;;
15528;SDS011;7866;52.280;9.500;2024-03-17T08:14:23;7.13;;;3.10;;
15528;SDS011;7866;52.280;9.500;2024-03-17T08:19:26;6.97;;;3.07;;
15528;SDS011;7866;52.280;9.500;2024-03-17T08:24:28;7.90;;;2.60;;
15528;SDS011;7866;52.280;9.500;2024-03-17T08:29:31;4.43;;;3.10;;
15528;SDS011;7866;52.280;9.500;2024-03-17T08:34:33;10.60;;;3.00;;
15528;SDS011;7866;52.280;9.500;2024-03-17T08:39:35;7.67;;;2.70;;
15528;SDS011;7866;52.280;9.500;2024-03-17T08:44:38;8.17;;;3.47;;
15528;SDS011;7866;52.280;9.500;2024-03-17T08:49:40;8.17;;;2.70;;
15528;SDS011;7866;52.280;9.500;2024-03-17T08:54:41;7.00;;;2.57;;
15528;SDS011;7866;52.280;9.500;2024-03-17T08:59:47;6.30;;;2.37;;
15528;SDS011;7866;52.280;9.500;2024-03-17T09:04:48;7.27;;;2.43;;
15528;SDS011;7866;52.280;9.500;2024-03-17T09:09:50;6.63;;;2.80;;
15528;SDS011;7866;52.280;9.500;2024-03-17T09:14:53;6.63;;;2.50;;
15528;SDS011;7866;52.280;9.500;2024-03-17T09:19:55;11.13;;;2.83;;
15528;SDS011;7866;52.280;9.500;2024-03-17T09:24:57;7.63;;;2.50;;
15528;SDS011;7866;52.280;9.500;2024-03-17T09:29:59;7.87;;;2.50;;
15528;SDS011;7866;52.280;9.500;2024-03-17T09:35:02;9.97;;;2.70;;
15528;SDS011;7866;52.280;9.500;2024-03-17T09:40:05;7.17;;;2.87;;
15528;SDS011;7866;52.280;9.500;2024-03-17T09:45:16;5.83;;;2.70;;
15528;SDS011;7866;52.280;9.500;2024-03-17T09:50:19;5.13;;;2.83;;
15528;SDS011;7866;52.280;9.500;2024-03-17T09:55:21;7.10;;;2.50;;
15528;SDS011;7866;52.280;9.500;2024-03-17T10:00:24;6.20;;;2.60;;
15528;SDS011;7866;52.280;9.500;2024-03-17T10:05:25;9.73;;;2.90;;
15528;SDS011;7866;52.280;9.500;2024-03-17T10:10:27;10.20;;;3.50;;
15528;SDS011;7866;52.280;9.500;2024-03-17T10:15:30;7.90;;;3.47;;
15528;SDS011;7866;52.280;9.500;2024-03-17T10:20:32;6.23;;;3.27;;
15528;SDS011;7866;52.280;9.500;2024-03-17T10:25:34;6.10;;;3.50;;
15528;SDS011;7866;52.280;9.500;2024-03-17T10:30:41;10.83;;;4.67;;
15528;SDS011;7866;52.280;9.500;2024-03-17T10:35:43;6.37;;;3.57;;
15528;SDS011;7866;52.280;9.500;2024-03-17T10:40:45;8.00;;;3.90;;
15528;SDS011;7866;52.280;9.500;2024-03-17T10:45:48;6.83;;;3.87;;
15528;SDS011;7866;52.280;9.500;2024-03-17T10:50:49;5.77;;;3.90;;
15528;SDS011;7866;52.280;9.500;2024-03-17T10:55:56;7.13;;;4.67;;
15528;SDS011;7866;52.280;9.500;2024-03-17T11:01:07;7.50;;;4.13;;
15528;SDS011;7866;52.280;9.500;2024-03-17T11:06:12;5.40;;;4.53;;
15528;SDS011;7866;52.280;9.500;2024-03-17T11:11:15;11.27;;;4.83;;
15528;SDS011;7866;52.280;9.500;2024-03-17T11:16:38;9.07;;;5.40;;
15528;SDS011;7866;52.280;9.500;2024-03-17T11:21:40;9.07;;;5.90;;
15528;SDS011;7866;52.280;9.500;2024-03-17T11:26:41;6.87;;;5.33;;
15528;SDS011;7866;52.280;9.500;2024-03-17T11:31:45;8.33;;;6.40;;
15528;SDS011;7866;52.280;9.500;2024-03-17T11:36:52;12.23;;;6.80;;
15528;SDS011;7866;52.280;9.500;2024-03-17T11:41:55;9.17;;;5.70;;
15528;SDS011;7866;52.280;9.500;2024-03-17T11:46:58;8.07;;;5.43;;
15528;SDS011;7866;52.280;9.500;2024-03-17T11:52:01;7.87;;;5.80;;
15528;SDS011;7866;52.280;9.500;2024-03-17T11:57:05;10.83;;;5.83;;
15528;SDS011;7866;52.280;9.500;2024-03-17T12:02:13;8.37;;;5.40;;
15528;SDS011;7866;52.280;9.500;2024-03-17T12:07:18;8.07;;;5.70;;
15528;SDS011;7866;52.280;9.500;2024-03-17T12:12:23;11.67;;;5.90;;
15528;SDS011;7866;52.280;9.500;2024-03-17T12:17:32;8.80;;;6.60;;
15528;SDS011;7866;52.280;9.500;2024-03-17T12:22:34;7.80;;;5.83;;
15528;SDS011;7866;52.280;9.500;2024-03-17T12:27:37;7.10;;;5.47;;
15528;SDS011;7866;52.280;9.500;2024-03-17T12:32:40;6.90;;;5.87;;
15528;SDS011;7866;52.280;9.500;2024-03-17T12:37:43;7.47;;;5.07;;
15528;SDS011;7866;52.280;9.500;2024-03-17T12:42:47;9.30;;;6.20;;
15528;SDS011;7866;52.280;9.500;2024-03-17T12:47:51;9.63;;;6.60;;
15528;SDS011;7866;52.280;9.500;2024-03-17T12:52:55;9.43;;;6.03;;
15528;SDS011;7866;52.280;9.500;2024-03-17T12:58:04;8.73;;;6.13;;
15528;SDS011;7866;52.280;9.500;2024-03-17T13:03:37;7.97;;;6.40;;
15528;SDS011;7866;52.280;9.500;2024-03-17T13:08:40;6.67;;;6.03;;
15528;SDS011;7866;52.280;9.500;2024-03-17T13:13:41;9.27;;;6.77;;
15528;SDS011;7866;52.280;9.500;2024-03-17T13:18:44;9.47;;;6.87;;
15528;SDS011;7866;52.280;9.500;2024-03-17T13:23:46;9.67;;;6.17;;
15528;SDS011;7866;52.280;9.500;2024-03-17T13:28:50;8.00;;;6.20;;
15528;SDS011;7866;52.280;9.500;2024-03-17T13:33:53;9.47;;;7.13;;
15528;SDS011;7866;52.280;9.500;2024-03-17T13:38:54;9.50;;;6.30;;
15528;SDS011;7866;52.280;9.500;2024-03-17T13:43:56;7.20;;;6.50;;
15528;SDS011;7866;52.280;9.500;2024-03-17T13:49:06;9.53;;;6.10;;
15528;SDS011;7866;52.280;9.500;2024-03-17T13:54:08;7.53;;;6.30;;
15528;SDS011;7866;52.280;9.500;2024-03-17T13:59:10;8.67;;;6.23;;
15528;SDS011;7866;52.280;9.500;2024-03-17T14:04:14;11.30;;;6.60;;
15528;SDS011;7866;52.280;9.500;2024-03-17T14:09:16;10.67;;;6.53;;
15528;SDS011;7866;52.280;9.500;2024-03-17T14:14:19;8.67;;;6.40;;
15528;SDS011;7866;52.280;9.500;2024-03-17T14:19:22;6.83;;;6.13;;
15528;SDS011;7866;52.280;9.500;2024-03-17T14:24:23;7.30;;;6.60;;
15528;SDS011;7866;52.280;9.500;2024-03-17T14:29:25;8.30;;;5.90;;
15528;SDS011;7866;52.280;9.500;2024-03-17T14:34:28;6.38;;;5.78;;
15528;SDS011;7866;52.280;9.500;2024-03-17T14:39:34;6.50;;;5.70;;
15528;SDS011;7866;52.280;9.500;2024-03-17T14:44:36;9.97;;;6.30;;
15528;SDS011;7866;52.280;9.500;2024-03-17T14:49:39;6.40;;;5.53;;
15528;SDS011;7866;52.280;9.500;2024-03-17T14:54:41;8.20;;;6.00;;
15528;SDS011;7866;52.280;9.500;2024-03-17T14:59:43;7.47;;;5.90;;
15528;SDS011;7866;52.280;9.500;2024-03-17T15:04:46;9.00;;;5.40;;
15528;SDS011;7866;52.280;9.500;2024-03-17T15:09:48;7.83;;;5.47;;
15528;SDS011;7866;52.280;9.500;2024-03-17T15:14:49;8.90;;;5.70;;
15528;SDS011;7866;52.280;9.500;2024-03-17T15:19:53;7.63;;;6.37;;
15528;SDS011;7866;52.280;9.500;2024-03-17T15:24:55;7.93;;;5.60;;
15528;SDS011;7866;52.280;9.500;2024-03-17T15:29:57;8.07;;;5.97;;
15528;SDS011;7866;52.280;9.500;2024-03-17T15:35:00;6.90;;;6.20;;
15528;SDS011;7866;52.280;9.500;2024-03-17T15:40:01;9.47;;;6.00;;
15528;SDS011;7866;52.280;9.500;2024-03-17T15:45:03;8.67;;;5.90;;
15528;SDS011;7866;52.280;9.500;2024-03-17T15:50:09;7.17;;;5.60;;
15528;SDS011;7866;52.280;9.500;2024-03-17T15:55:11;7.57;;;5.43;;
15528;SDS011;7866;52.280;9.500;2024-03-17T16:00:13;5.53;;;5.03;;
15528;SDS011;7866;52.280;9.500;2024-03-17T16:05:18;7.67;;;4.97;;
15528;SDS011;7866;52.280;9.500;2024-03-17T16:10:20;7.17;;;5.57;;
15528;SDS011;7866;52.280;9.500;2024-03-17T16:15:24;7.60;;;6.30;;
15528;SDS011;7866;52.280;9.500;2024-03-17T16:20:40;6.97;;;5.60;;
15528;SDS011;7866;52.280;9.500;2024-03-17T16:25:57;7.97;;;6.00;;
15528;SDS011;7866;52.280;9.500;2024-03-17T16:31:01;10.10;;;6.00;;
15528;SDS011;7866;52.280;9.500;2024-03-17T16:36:05;10.43;;;5.83;;
15528;SDS011;7866;52.280;9.500;2024-03-17T16:41:08;8.00;;;5.10;;
15528;SDS011;7866;52.280;9.500;2024-03-17T16:46:22;9.00;;;5.63;;
15528;SDS011;7866;52.280;9.500;2024-03-17T16:51:40;6.53;;;5.83;;
15528;SDS011;7866;52.280;9.500;2024-03-17T16:56:42;5.90;;;5.00;;
15528;SDS011;7866;52.280;9.500;2024-03-17T17:01:44;8.97;;;5.47;;
15528;SDS011;7866;52.280;9.500;2024-03-17T17:06:47;10.27;;;5.83;;
15528;SDS011;7866;52.280;9.500;2024-03-17T17:11:48;5.07;;;4.57;;
15528;SDS011;7866;52.280;9.500;2024-03-17T17:16:52;8.37;;;5.33;;
15528;SDS011;7866;52.280;9.500;2024-03-17T17:21:55;7.30;;;4.73;;
15528;SDS011;7866;52.280;9.500;2024-03-17T17:26:57;7.77;;;5.40;;
15528;SDS011;7866;52.280;9.500;2024-03-17T17:31:58;6.27;;;5.20;;
15528;SDS011;7866;52.280;9.500;2024-03-17T17:37:02;5.43;;;4.93;;
15528;SDS011;7866;52.280;9.500;2024-03-17T17:42:04;8.03;;;5.17;;
15528;SDS011;7866;52.280;9.500;2024-03-17T17:47:06;7.00;;;5.00;;
15528;SDS011;7866;52.280;9.500;2024-03-17T17:52:09;7.30;;;5.00;;
15528;SDS011;7866;52.280;9.500;2024-03-17T17:57:11;6.07;;;4.77;;
15528;SDS011;7866;52.280;9.500;2024-03-17T18:02:12;5.70;;;5.10;;
15528;SDS011;7866;52.280;9.500;2024-03-17T18:07:15;6.13;;;4.10;;
15528;SDS011;7866;52.280;9.500;2024-03-17T18:12:17;5.47;;;4.43;;
15528;SDS011;7866;52.280;9.500;2024-03-17T18:17:18;5.67;;;4.40;;
15528;SDS011;7866;52.280;9.500;2024-03-17T18:22:21;6.67;;;4.33;;
15528;SDS011;7866;52.280;9.500;2024-03-17T18:27:24;8.63;;;4.57;;
15528;SDS011;7866;52.280;9.500;2024-03-17T18:32:25;6.50;;;5.00;;
15528;SDS011;7866;52.280;9.500;2024-03-17T18:37:29;6.70;;;4.30;;
15528;SDS011;7866;52.280;9.500;2024-03-17T18:42:32;6.10;;;4.30;;
15528;SDS011;7866;52.280;9.500;2024-03-17T18:47:34;8.47;;;4.63;;
15528;SDS011;7866;52.280;9.500;2024-03-17T18:52:39;5.70;;;3.90;;
15528;SDS011;7866;52.280;9.500;2024-03-17T18:57:41;6.67;;;4.13;;
15528;SDS011;7866;52.280;9.500;2024-03-17T19:02:45;5.70;;;4.47;;
15528;SDS011;7866;52.280;9.500;2024-03-17T19:07:48;6.13;;;5.30;;
15528;SDS011;7866;52.280;9.500;2024-03-17T19:12:51;10.30;;;4.60;;
15528;SDS011;7866;52.280;9.500;2024-03-17T19:17:53;8.70;;;5.17;;
15528;SDS011;7866;52.280;9.500;2024-03-17T19:22:56;5.57;;;4.80;;
15528;SDS011;7866;52.280;9.500;2024-03-17T19:27:57;10.13;;;5.20;;
15528;SDS011;7866;52.280;9.500;2024-03-17T19:32:59;6.47;;;4.70;;
15528;SDS011;7866;52.280;9.500;2024-03-17T19:38:02;7.07;;;4.77;;
15528;SDS011;7866;52.280;9.500;2024-03-17T19:43:04;5.37;;;4.07;;
15528;SDS011;7866;52.280;9.500;2024-03-17T19:48:08;5.27;;;4.03;;
15528;SDS011;7866;52.280;9.500;2024-03-17T19:53:11;9.47;;;4.80;;
15528;SDS011;7866;52.280;9.500;2024-03-17T19:58:13;9.70;;;5.00;;
15528;SDS011;7866;52.280;9.500;2024-03-17T20:03:15;5.67;;;5.17;;
15528;SDS011;7866;52.280;9.500;2024-03-17T20:08:18;8.03;;;5.67;;
15528;SDS011;7866;52.280;9.500;2024-03-17T20:13:21;9.07;;;5.47;;
15528;SDS011;7866;52.280;9.500;2024-03-17T20:18:22;8.00;;;5.57;;
15528;SDS011;7866;52.280;9.500;2024-03-17T20:23:26;7.43;;;5.73;;
15528;SDS011;7866;52.280;9.500;2024-03-17T20:28:28;8.13;;;6.30;;
15528;SDS011;7866;52.280;9.500;2024-03-17T20:33:29;8.80;;;6.67;;
15528;SDS011;7866;52.280;9.500;2024-03-17T20:38:32;8.80;;;7.23;;
15528;SDS011;7866;52.280;9.500;2024-03-17T20:43:34;10.67;;;7.13;;
15528;SDS011;7866;52.280;9.500;2024-03-17T20:48:36;7.60;;;5.93;;
15528;SDS011;7866;52.280;9.500;2024-03-17T20:53:39;10.63;;;7.50;;
15528;SDS011;7866;52.280;9.500;2024-03-17T20:58:41;10.00;;;7.03;;
15528;SDS011;7866;52.280;9.500;2024-03-17T21:03:44;9.63;;;7.33;;
15528;SDS011;7866;52.280;9.500;2024-03-17T21:08:47;8.23;;;6.90;;
15528;SDS011;7866;52.280;9.500;2024-03-17T21:13:48;8.70;;;7.20;;
15528;SDS011;7866;52.280;9.500;2024-03-17T21:18:50;8.67;;;7.07;;
15528;SDS011;7866;52.280;9.500;2024-03-17T21:23:53;9.47;;;7.20;;
15528;SDS011;7866;52.280;9.500;2024-03-17T21:28:55;9.37;;;7.23;;
15528;SDS011;7866;52.280;9.500;2024-03-17T21:33:57;8.20;;;7.17;;
15528;SDS011;7866;52.280;9.500;2024-03-17T21:39:00;7.57;;;6.87;;
15528;SDS011;7866;52.280;9.500;2024-03-17T21:44:04;9.13;;;7.10;;
15528;SDS011;7866;52.280;9.500;2024-03-17T21:49:07;10.77;;;6.70;;
15528;SDS011;7866;52.280;9.500;2024-03-17T21:54:10;12.97;;;8.00;;
15528;SDS011;7866;52.280;9.500;2024-03-17T21:59:12;10.97;;;7.37;;
15528;SDS011;7866;52.280;9.500;2024-03-17T22:04:17;9.27;;;7.40;;
15528;SDS011;7866;52.280;9.500;2024-03-17T22:09:20;8.17;;;7.30;;
15528;SDS011;7866;52.280;9.500;2024-03-17T22:14:21;9.43;;;7.70;;
15528;SDS011;7866;52.280;9.500;2024-03-17T22:19:23;8.03;;;7.23;;
15528;SDS011;7866;52.280;9.500;2024-03-17T22:24:26;10.90;;;7.43;;
15528;SDS011;7866;52.280;9.500;2024-03-17T22:29:28;12.20;;;7.57;;
15528;SDS011;7866;52.280;9.500;2024-03-17T22:34:30;9.13;;;7.03;;
15528;SDS011;7866;52.280;9.500;2024-03-17T22:39:33;9.63;;;7.13;;
15528;SDS011;7866;52.280;9.500;2024-03-17T22:44:35;7.60;;;6.30;;
15528;SDS011;7866;52.280;9.500;2024-03-17T22:49:36;7.67;;;6.40;;
15528;SDS011;7866;52.280;9.500;2024-03-17T22:54:39;8.00;;;6.67;;
15528;SDS011;7866;52.280;9.500;2024-03-17T22:59:41;9.53;;;6.67;;
15528;SDS011;7866;52.280;9.500;2024-03-17T23:04:44;9.90;;;6.47;;
15528;SDS011;7866;52.280;9.500;2024-03-17T23:09:47;13.60;;;6.83;;
15528;SDS011;7866;52.280;9.500;2024-03-17T23:14:50;7.70;;;5.20;;
15528;SDS011;7866;52.280;9.500;2024-03-17T23:19:52;9.33;;;5.33;;
15528;SDS011;7866;52.280;9.500;2024-03-17T23:24:56;10.50;;;5.40;;
15528;SDS011;7866;52.280;9.500;2024-03-17T23:29:57;8.07;;;5.07;;
15528;SDS011;7866;52.280;9.500;2024-03-17T23:34:59;6.80;;;5.17;;
15528;SDS011;7866;52.280;9.500;2024-03-17T23:40:02;7.67;;;5.10;;
15528;SDS011;7866;52.280;9.500;2024-03-17T23:45:06;7.63;;;4.90;;
15528;SDS011;7866;52.280;9.500;2024-03-17T23:50:09;7.57;;;4.50;;
15528;SDS011;7866;52.280;9.500;2024-03-17T23:55:12;8.93;;;5.17;;
